sensor_id;sensor_type;location;lat;lon;timestamp;P1;durP1;ratioP1;P2;durP2;ratioP2
22080;SDS011;11207;59.512;18.050;2022-10-23T00:01:26;6.03;;;5.43;;
22080;SDS011;11207;59.512;18.050;2022-10-23T00:03:57;7.40;;;5.30;;
22080;SDS011;11207;59.512;18.050;2022-10-23T00:06:31;6.63;;;5.70;;
22080;SDS011;11207;59.512;18.050;2022-10-23T00:08:58;6.13;;;5.30;;
22080;SDS011;11207;59.512;18.050;2022-10-23T00:11:25;5.80;;;5.20;;
22080;SDS011;11207;59.512;18.050;2022-10-23T00:13:53;5.37;;;4.87;;
22080;SDS011;11207;59.512;18.050;2022-10-23T00:16:20;6.23;;;5.63;;
22080;SDS011;11207;59.512;18.050;2022-10-23T00:18:45;6.67;;;5.60;;
22080;SDS011;11207;59.512;18.050;2022-10-23T00:21:12;5.53;;;5.03;;
22080;SDS011;11207;59.512;18.050;2022-10-23T00:23:39;14.03;;;5.57;;
22080;SDS011;11207;59.512;18.050;2022-10-23T00:26:05;6.73;;;6.03;;
22080;SDS011;11207;59.512;18.050;2022-10-23T00:28:32;6.10;;;5.50;;
22080;SDS011;11207;59.512;18.050;2022-10-23T00:31:02;8.00;;;5.70;;
22080;SDS011;11207;59.512;18.050;2022-10-23T00:33:29;6.47;;;5.77;;
22080;SDS011;11207;59.512;18.050;2022-10-23T00:35:55;7.53;;;6.20;;
22080;SDS011;11207;59.512;18.050;2022-10-23T00:38:21;6.63;;;5.93;;
22080;SDS011;11207;59.512;18.050;2022-10-23T00:40:46;8.10;;;6.03;;
22080;SDS011;11207;59.512;18.050;2022-10-23T00:43:16;8.07;;;6.90;;
22080;SDS011;11207;59.512;18.050;2022-10-23T00:45:46;7.13;;;6.03;;
22080;SDS011;11207;59.512;18.050;2022-10-23T00:48:12;6.97;;;6.10;;
22080;SDS011;11207;59.512;18.050;2022-10-23T00:50:38;8.83;;;5.83;;
22080;SDS011;11207;59.512;18.050;2022-10-23T00:53:04;7.97;;;6.43;;
22080;SDS011;11207;59.512;18.050;2022-10-23T00:55:31;8.07;;;6.70;;
22080;SDS011;11207;59.512;18.050;2022-10-23T00:57:58;8.77;;;7.10;;
22080;SDS011;11207;59.512;18.050;2022-10-23T01:00:39;8.03;;;6.23;;
22080;SDS011;11207;59.512;18.050;2022-10-23T01:03:16;8.50;;;6.97;;
22080;SDS011;11207;59.512;18.050;2022-10-23T01:05:48;7.53;;;6.67;;
22080;SDS011;11207;59.512;18.050;2022-10-23T01:08:56;9.27;;;6.83;;
22080;SDS011;11207;59.512;18.050;2022-10-23T01:11:21;9.53;;;7.23;;
22080;SDS011;11207;59.512;18.050;2022-10-23T01:17:02;8.13;;;6.70;;
22080;SDS011;11207;59.512;18.050;2022-10-23T01:25:22;9.37;;;7.67;;
22080;SDS011;11207;59.512;18.050;2022-10-23T01:28:05;8.93;;;7.10;;
22080;SDS011;11207;59.512;18.050;2022-10-23T01:30:36;7.20;;;6.50;;
22080;SDS011;11207;59.512;18.050;2022-10-23T01:33:11;9.60;;;7.37;;
22080;SDS011;11207;59.512;18.050;2022-10-23T01:35:48;9.87;;;6.40;;
22080;SDS011;11207;59.512;18.050;2022-10-23T01:38:20;8.93;;;7.07;;
22080;SDS011;11207;59.512;18.050;2022-10-23T01:43:26;8.30;;;7.03;;
22080;SDS011;11207;59.512;18.050;2022-10-23T01:46:02;9.17;;;6.87;;
22080;SDS011;11207;59.512;18.050;2022-10-23T01:48:32;8.77;;;6.97;;
22080;SDS011;11207;59.512;18.050;2022-10-23T01:51:00;8.63;;;6.83;;
22080;SDS011;11207;59.512;18.050;2022-10-23T01:53:33;7.10;;;6.40;;
22080;SDS011;11207;59.512;18.050;2022-10-23T01:56:02;8.17;;;6.73;;
22080;SDS011;11207;59.512;18.050;2022-10-23T01:58:34;8.17;;;6.77;;
22080;SDS011;11207;59.512;18.050;2022-10-23T02:01:01;7.70;;;6.70;;
22080;SDS011;11207;59.512;18.050;2022-10-23T02:03:30;9.77;;;6.23;;
22080;SDS011;11207;59.512;18.050;2022-10-23T02:05:57;8.07;;;6.63;;
22080;SDS011;11207;59.512;18.050;2022-10-23T02:08:22;8.30;;;6.97;;
22080;SDS011;11207;59.512;18.050;2022-10-23T02:14:02;9.73;;;7.27;;
22080;SDS011;11207;59.512;18.050;2022-10-23T02:19:27;8.70;;;7.00;;
22080;SDS011;11207;59.512;18.050;2022-10-23T02:24:52;9.43;;;7.00;;
22080;SDS011;11207;59.512;18.050;2022-10-23T02:27:54;7.87;;;6.73;;
22080;SDS011;11207;59.512;18.050;2022-10-23T02:30:22;7.80;;;7.00;;
22080;SDS011;11207;59.512;18.050;2022-10-23T02:32:49;9.97;;;7.40;;
22080;SDS011;11207;59.512;18.050;2022-10-23T02:35:17;7.50;;;6.57;;
22080;SDS011;11207;59.512;18.050;2022-10-23T02:37:51;9.20;;;6.70;;
22080;SDS011;11207;59.512;18.050;2022-10-23T02:40:21;8.40;;;6.90;;
22080;SDS011;11207;59.512;18.050;2022-10-23T02:43:12;8.23;;;6.77;;
22080;SDS011;11207;59.512;18.050;2022-10-23T02:45:39;11.20;;;7.33;;
22080;SDS011;11207;59.512;18.050;2022-10-23T02:51:08;7.53;;;6.53;;
22080;SDS011;11207;59.512;18.050;2022-10-23T02:53:39;9.87;;;7.20;;
22080;SDS011;11207;59.512;18.050;2022-10-23T02:56:09;8.63;;;7.10;;
22080;SDS011;11207;59.512;18.050;2022-10-23T02:58:59;8.70;;;6.97;;
22080;SDS011;11207;59.512;18.050;2022-10-23T03:01:53;9.00;;;6.80;;
22080;SDS011;11207;59.512;18.050;2022-10-23T03:04:26;7.97;;;6.97;;
22080;SDS011;11207;59.512;18.050;2022-10-23T03:06:53;10.37;;;7.20;;
22080;SDS011;11207;59.512;18.050;2022-10-23T03:09:20;8.27;;;7.13;;
22080;SDS011;11207;59.512;18.050;2022-10-23T03:11:45;8.83;;;7.40;;
22080;SDS011;11207;59.512;18.050;2022-10-23T03:14:11;10.33;;;7.30;;
22080;SDS011;11207;59.512;18.050;2022-10-23T03:16:38;12.07;;;7.43;;
22080;SDS011;11207;59.512;18.050;2022-10-23T03:19:03;8.50;;;7.20;;
22080;SDS011;11207;59.512;18.050;2022-10-23T03:21:29;8.93;;;7.10;;
22080;SDS011;11207;59.512;18.050;2022-10-23T03:23:55;15.40;;;8.20;;
22080;SDS011;11207;59.512;18.050;2022-10-23T03:26:20;11.60;;;7.80;;
22080;SDS011;11207;59.512;18.050;2022-10-23T03:28:46;8.23;;;6.67;;
22080;SDS011;11207;59.512;18.050;2022-10-23T03:31:11;8.03;;;7.07;;
22080;SDS011;11207;59.512;18.050;2022-10-23T03:33:37;9.27;;;7.03;;
22080;SDS011;11207;59.512;18.050;2022-10-23T03:36:03;8.53;;;7.23;;
22080;SDS011;11207;59.512;18.050;2022-10-23T03:38:29;10.47;;;6.93;;
22080;SDS011;11207;59.512;18.050;2022-10-23T03:40:55;8.97;;;7.47;;
22080;SDS011;11207;59.512;18.050;2022-10-23T03:43:21;10.37;;;7.10;;
22080;SDS011;11207;59.512;18.050;2022-10-23T03:45:47;12.23;;;7.13;;
22080;SDS011;11207;59.512;18.050;2022-10-23T03:48:12;8.97;;;6.80;;
22080;SDS011;11207;59.512;18.050;2022-10-23T03:50:38;8.03;;;6.97;;
22080;SDS011;11207;59.512;18.050;2022-10-23T03:53:04;11.90;;;7.30;;
22080;SDS011;11207;59.512;18.050;2022-10-23T03:55:30;10.97;;;7.13;;
22080;SDS011;11207;59.512;18.050;2022-10-23T03:57:55;7.37;;;6.27;;
22080;SDS011;11207;59.512;18.050;2022-10-23T04:00:21;8.87;;;6.80;;
22080;SDS011;11207;59.512;18.050;2022-10-23T04:02:47;8.23;;;6.90;;
22080;SDS011;11207;59.512;18.050;2022-10-23T04:05:12;7.67;;;6.40;;
22080;SDS011;11207;59.512;18.050;2022-10-23T04:07:38;9.10;;;7.13;;
22080;SDS011;11207;59.512;18.050;2022-10-23T04:10:04;7.87;;;6.60;;
22080;SDS011;11207;59.512;18.050;2022-10-23T04:12:30;8.53;;;7.23;;
22080;SDS011;11207;59.512;18.050;2022-10-23T04:14:56;10.10;;;7.47;;
22080;SDS011;11207;59.512;18.050;2022-10-23T04:17:21;9.63;;;7.73;;
22080;SDS011;11207;59.512;18.050;2022-10-23T04:19:47;10.37;;;7.20;;
22080;SDS011;11207;59.512;18.050;2022-10-23T04:22:13;8.47;;;7.17;;
22080;SDS011;11207;59.512;18.050;2022-10-23T04:24:38;12.07;;;7.90;;
22080;SDS011;11207;59.512;18.050;2022-10-23T04:27:09;7.77;;;6.90;;
22080;SDS011;11207;59.512;18.050;2022-10-23T04:29:35;8.83;;;6.77;;
22080;SDS011;11207;59.512;18.050;2022-10-23T04:32:00;9.10;;;7.40;;
22080;SDS011;11207;59.512;18.050;2022-10-23T04:34:26;10.27;;;7.37;;
22080;SDS011;11207;59.512;18.050;2022-10-23T04:36:52;10.47;;;6.97;;
22080;SDS011;11207;59.512;18.050;2022-10-23T04:39:17;8.63;;;6.70;;
22080;SDS011;11207;59.512;18.050;2022-10-23T04:41:43;9.17;;;7.40;;
22080;SDS011;11207;59.512;18.050;2022-10-23T04:44:09;8.73;;;7.17;;
22080;SDS011;11207;59.512;18.050;2022-10-23T04:46:34;9.50;;;7.30;;
22080;SDS011;11207;59.512;18.050;2022-10-23T04:49:00;9.53;;;7.30;;
22080;SDS011;11207;59.512;18.050;2022-10-23T04:51:26;11.57;;;7.37;;
22080;SDS011;11207;59.512;18.050;2022-10-23T04:53:51;7.77;;;6.70;;
22080;SDS011;11207;59.512;18.050;2022-10-23T04:56:17;9.67;;;7.00;;
22080;SDS011;11207;59.512;18.050;2022-10-23T04:58:42;9.43;;;7.37;;
22080;SDS011;11207;59.512;18.050;2022-10-23T05:01:08;11.17;;;7.50;;
22080;SDS011;11207;59.512;18.050;2022-10-23T05:03:34;10.17;;;8.33;;
22080;SDS011;11207;59.512;18.050;2022-10-23T05:06:01;10.57;;;7.60;;
22080;SDS011;11207;59.512;18.050;2022-10-23T05:08:27;8.40;;;6.83;;
22080;SDS011;11207;59.512;18.050;2022-10-23T05:10:53;8.73;;;6.83;;
22080;SDS011;11207;59.512;18.050;2022-10-23T05:13:19;9.00;;;7.47;;
22080;SDS011;11207;59.512;18.050;2022-10-23T05:15:46;7.43;;;6.67;;
22080;SDS011;11207;59.512;18.050;2022-10-23T05:18:16;7.47;;;6.50;;
22080;SDS011;11207;59.512;18.050;2022-10-23T05:20:49;8.43;;;6.73;;
22080;SDS011;11207;59.512;18.050;2022-10-23T05:23:19;8.60;;;6.43;;
22080;SDS011;11207;59.512;18.050;2022-10-23T05:25:48;8.70;;;6.97;;
22080;SDS011;11207;59.512;18.050;2022-10-23T05:28:13;9.17;;;6.87;;
22080;SDS011;11207;59.512;18.050;2022-10-23T05:30:39;9.00;;;7.00;;
22080;SDS011;11207;59.512;18.050;2022-10-23T05:33:05;7.27;;;6.53;;
22080;SDS011;11207;59.512;18.050;2022-10-23T05:35:31;8.33;;;6.87;;
22080;SDS011;11207;59.512;18.050;2022-10-23T05:37:57;8.40;;;7.00;;
22080;SDS011;11207;59.512;18.050;2022-10-23T05:40:24;8.30;;;7.00;;
22080;SDS011;11207;59.512;18.050;2022-10-23T05:42:50;9.00;;;7.20;;
22080;SDS011;11207;59.512;18.050;2022-10-23T05:45:15;10.63;;;7.87;;
22080;SDS011;11207;59.512;18.050;2022-10-23T05:47:44;10.80;;;8.13;;
22080;SDS011;11207;59.512;18.050;2022-10-23T05:50:11;9.70;;;7.23;;
22080;SDS011;11207;59.512;18.050;2022-10-23T05:52:37;10.73;;;7.80;;
22080;SDS011;11207;59.512;18.050;2022-10-23T05:55:02;10.13;;;7.83;;
22080;SDS011;11207;59.512;18.050;2022-10-23T05:57:30;9.60;;;7.83;;
22080;SDS011;11207;59.512;18.050;2022-10-23T05:59:57;10.13;;;8.27;;
22080;SDS011;11207;59.512;18.050;2022-10-23T06:02:22;10.67;;;8.27;;
22080;SDS011;11207;59.512;18.050;2022-10-23T06:04:48;10.90;;;7.50;;
22080;SDS011;11207;59.512;18.050;2022-10-23T06:07:14;11.13;;;8.60;;
22080;SDS011;11207;59.512;18.050;2022-10-23T06:09:40;10.70;;;8.90;;
22080;SDS011;11207;59.512;18.050;2022-10-23T06:12:06;11.73;;;8.87;;
22080;SDS011;11207;59.512;18.050;2022-10-23T06:14:31;11.70;;;8.47;;
22080;SDS011;11207;59.512;18.050;2022-10-23T06:16:57;11.57;;;8.43;;
22080;SDS011;11207;59.512;18.050;2022-10-23T06:19:23;10.60;;;8.33;;
22080;SDS011;11207;59.512;18.050;2022-10-23T06:21:48;11.47;;;9.13;;
22080;SDS011;11207;59.512;18.050;2022-10-23T06:24:14;12.00;;;8.27;;
22080;SDS011;11207;59.512;18.050;2022-10-23T06:26:39;10.20;;;7.60;;
22080;SDS011;11207;59.512;18.050;2022-10-23T06:29:05;13.10;;;7.93;;
22080;SDS011;11207;59.512;18.050;2022-10-23T06:31:31;10.07;;;7.43;;
22080;SDS011;11207;59.512;18.050;2022-10-23T06:33:57;12.00;;;8.33;;
22080;SDS011;11207;59.512;18.050;2022-10-23T06:36:24;10.87;;;8.50;;
22080;SDS011;11207;59.512;18.050;2022-10-23T06:38:50;12.57;;;9.10;;
22080;SDS011;11207;59.512;18.050;2022-10-23T06:41:17;11.33;;;9.20;;
22080;SDS011;11207;59.512;18.050;2022-10-23T06:43:48;13.37;;;9.00;;
22080;SDS011;11207;59.512;18.050;2022-10-23T06:46:15;11.27;;;8.70;;
22080;SDS011;11207;59.512;18.050;2022-10-23T06:48:42;10.30;;;8.40;;
22080;SDS011;11207;59.512;18.050;2022-10-23T06:51:09;11.40;;;8.37;;
22080;SDS011;11207;59.512;18.050;2022-10-23T06:53:36;8.20;;;7.13;;
22080;SDS011;11207;59.512;18.050;2022-10-23T06:56:02;10.07;;;8.00;;
22080;SDS011;11207;59.512;18.050;2022-10-23T06:58:29;10.17;;;7.53;;
22080;SDS011;11207;59.512;18.050;2022-10-23T07:00:58;8.77;;;7.30;;
22080;SDS011;11207;59.512;18.050;2022-10-23T07:03:25;13.50;;;8.93;;
22080;SDS011;11207;59.512;18.050;2022-10-23T07:05:51;13.83;;;9.53;;
22080;SDS011;11207;59.512;18.050;2022-10-23T07:08:16;11.30;;;8.57;;
22080;SDS011;11207;59.512;18.050;2022-10-23T07:10:42;9.67;;;8.23;;
22080;SDS011;11207;59.512;18.050;2022-10-23T07:13:08;11.27;;;8.70;;
22080;SDS011;11207;59.512;18.050;2022-10-23T07:15:34;11.80;;;7.67;;
22080;SDS011;11207;59.512;18.050;2022-10-23T07:18:00;8.73;;;7.40;;
22080;SDS011;11207;59.512;18.050;2022-10-23T07:20:26;8.73;;;6.97;;
22080;SDS011;11207;59.512;18.050;2022-10-23T07:22:53;9.47;;;7.33;;
22080;SDS011;11207;59.512;18.050;2022-10-23T07:25:23;10.40;;;8.33;;
22080;SDS011;11207;59.512;18.050;2022-10-23T07:27:50;9.23;;;8.07;;
22080;SDS011;11207;59.512;18.050;2022-10-23T07:30:16;10.70;;;8.43;;
22080;SDS011;11207;59.512;18.050;2022-10-23T07:32:42;8.63;;;7.03;;
22080;SDS011;11207;59.512;18.050;2022-10-23T07:35:09;9.47;;;6.93;;
22080;SDS011;11207;59.512;18.050;2022-10-23T07:37:35;8.80;;;6.93;;
22080;SDS011;11207;59.512;18.050;2022-10-23T07:40:02;8.27;;;6.83;;
22080;SDS011;11207;59.512;18.050;2022-10-23T07:42:28;11.03;;;6.47;;
22080;SDS011;11207;59.512;18.050;2022-10-23T07:44:54;8.03;;;6.83;;
22080;SDS011;11207;59.512;18.050;2022-10-23T07:47:20;6.57;;;5.97;;
22080;SDS011;11207;59.512;18.050;2022-10-23T07:49:46;7.73;;;6.40;;
22080;SDS011;11207;59.512;18.050;2022-10-23T07:52:12;8.10;;;6.80;;
22080;SDS011;11207;59.512;18.050;2022-10-23T07:54:37;7.73;;;6.73;;
22080;SDS011;11207;59.512;18.050;2022-10-23T07:57:03;6.27;;;5.67;;
22080;SDS011;11207;59.512;18.050;2022-10-23T07:59:31;9.90;;;6.03;;
22080;SDS011;11207;59.512;18.050;2022-10-23T08:01:57;7.37;;;6.07;;
22080;SDS011;11207;59.512;18.050;2022-10-23T08:04:23;8.73;;;6.53;;
22080;SDS011;11207;59.512;18.050;2022-10-23T08:06:51;7.13;;;6.33;;
22080;SDS011;11207;59.512;18.050;2022-10-23T08:09:17;7.80;;;6.27;;
22080;SDS011;11207;59.512;18.050;2022-10-23T08:11:43;7.20;;;6.47;;
22080;SDS011;11207;59.512;18.050;2022-10-23T08:14:09;8.20;;;6.50;;
22080;SDS011;11207;59.512;18.050;2022-10-23T08:16:35;6.87;;;5.97;;
22080;SDS011;11207;59.512;18.050;2022-10-23T08:19:02;6.90;;;6.20;;
22080;SDS011;11207;59.512;18.050;2022-10-23T08:21:30;7.63;;;5.87;;
22080;SDS011;11207;59.512;18.050;2022-10-23T08:23:56;6.80;;;5.87;;
22080;SDS011;11207;59.512;18.050;2022-10-23T08:26:23;6.80;;;5.93;;
22080;SDS011;11207;59.512;18.050;2022-10-23T08:28:50;7.67;;;6.30;;
22080;SDS011;11207;59.512;18.050;2022-10-23T08:31:17;6.60;;;5.90;;
22080;SDS011;11207;59.512;18.050;2022-10-23T08:33:44;6.67;;;5.03;;
22080;SDS011;11207;59.512;18.050;2022-10-23T08:36:21;5.77;;;5.17;;
22080;SDS011;11207;59.512;18.050;2022-10-23T08:38:48;6.47;;;5.20;;
22080;SDS011;11207;59.512;18.050;2022-10-23T08:43:51;6.23;;;5.63;;
22080;SDS011;11207;59.512;18.050;2022-10-23T08:46:23;7.47;;;5.77;;
22080;SDS011;11207;59.512;18.050;2022-10-23T08:48:54;7.07;;;5.30;;
22080;SDS011;11207;59.512;18.050;2022-10-23T08:51:34;7.33;;;6.13;;
22080;SDS011;11207;59.512;18.050;2022-10-23T08:56:47;5.87;;;5.27;;
22080;SDS011;11207;59.512;18.050;2022-10-23T08:59:39;5.77;;;5.17;;
22080;SDS011;11207;59.512;18.050;2022-10-23T09:02:21;6.83;;;5.90;;
22080;SDS011;11207;59.512;18.050;2022-10-23T09:04:52;7.70;;;5.80;;
22080;SDS011;11207;59.512;18.050;2022-10-23T09:12:34;6.90;;;6.20;;
22080;SDS011;11207;59.512;18.050;2022-10-23T09:17:39;7.03;;;5.93;;
22080;SDS011;11207;59.512;18.050;2022-10-23T09:22:52;6.60;;;5.77;;
22080;SDS011;11207;59.512;18.050;2022-10-23T09:25:21;6.10;;;5.50;;
22080;SDS011;11207;59.512;18.050;2022-10-23T09:27:51;6.20;;;5.57;;
22080;SDS011;11207;59.512;18.050;2022-10-23T09:30:33;7.83;;;6.23;;
22080;SDS011;11207;59.512;18.050;2022-10-23T09:33:11;5.67;;;5.13;;
22080;SDS011;11207;59.512;18.050;2022-10-23T09:35:49;6.40;;;5.73;;
22080;SDS011;11207;59.512;18.050;2022-10-23T09:38:30;6.77;;;6.00;;
22080;SDS011;11207;59.512;18.050;2022-10-23T09:41:26;6.50;;;5.40;;
22080;SDS011;11207;59.512;18.050;2022-10-23T09:47:07;6.13;;;5.23;;
22080;SDS011;11207;59.512;18.050;2022-10-23T09:49:48;6.90;;;5.87;;
22080;SDS011;11207;59.512;18.050;2022-10-23T09:57:36;5.73;;;5.13;;
22080;SDS011;11207;59.512;18.050;2022-10-23T10:00:13;6.33;;;5.17;;
22080;SDS011;11207;59.512;18.050;2022-10-23T10:05:34;6.57;;;5.83;;
22080;SDS011;11207;59.512;18.050;2022-10-23T10:10:43;5.73;;;5.10;;
22080;SDS011;11207;59.512;18.050;2022-10-23T10:16:00;5.73;;;4.83;;
22080;SDS011;11207;59.512;18.050;2022-10-23T10:21:23;6.10;;;5.10;;
22080;SDS011;11207;59.512;18.050;2022-10-23T10:24:19;4.93;;;4.40;;
22080;SDS011;11207;59.512;18.050;2022-10-23T10:46:33;5.53;;;4.50;;
22080;SDS011;11207;59.512;18.050;2022-10-23T10:51:57;4.83;;;4.33;;
22080;SDS011;11207;59.512;18.050;2022-10-23T10:54:51;5.37;;;4.20;;
22080;SDS011;11207;59.512;18.050;2022-10-23T10:57:35;5.00;;;4.50;;
22080;SDS011;11207;59.512;18.050;2022-10-23T11:00:15;4.23;;;3.83;;
22080;SDS011;11207;59.512;18.050;2022-10-23T11:02:44;4.80;;;4.40;;
22080;SDS011;11207;59.512;18.050;2022-10-23T11:05:31;4.17;;;3.77;;
22080;SDS011;11207;59.512;18.050;2022-10-23T11:08:40;5.97;;;4.57;;
22080;SDS011;11207;59.512;18.050;2022-10-23T11:10:59;4.70;;;4.30;;
22080;SDS011;11207;59.512;18.050;2022-10-23T11:13:36;5.20;;;4.30;;
22080;SDS011;11207;59.512;18.050;2022-10-23T11:16:09;4.23;;;3.70;;
22080;SDS011;11207;59.512;18.050;2022-10-23T11:18:44;4.90;;;3.90;;
22080;SDS011;11207;59.512;18.050;2022-10-23T11:24:16;5.27;;;4.17;;
22080;SDS011;11207;59.512;18.050;2022-10-23T11:27:03;4.70;;;4.30;;
22080;SDS011;11207;59.512;18.050;2022-10-23T11:37:40;3.80;;;3.50;;
22080;SDS011;11207;59.512;18.050;2022-10-23T11:42:32;3.90;;;3.60;;
22080;SDS011;11207;59.512;18.050;2022-10-23T11:44:58;4.93;;;3.63;;
22080;SDS011;11207;59.512;18.050;2022-10-23T11:52:33;3.90;;;3.50;;
22080;SDS011;11207;59.512;18.050;2022-10-23T11:55:15;3.90;;;3.60;;
22080;SDS011;11207;59.512;18.050;2022-10-23T11:58:06;5.20;;;3.00;;
22080;SDS011;11207;59.512;18.050;2022-10-23T12:03:31;3.63;;;3.33;;
22080;SDS011;11207;59.512;18.050;2022-10-23T12:06:25;3.83;;;3.40;;
22080;SDS011;11207;59.512;18.050;2022-10-23T12:09:50;3.90;;;3.50;;
22080;SDS011;11207;59.512;18.050;2022-10-23T12:14:38;5.40;;;3.50;;
22080;SDS011;11207;59.512;18.050;2022-10-23T12:17:19;3.63;;;3.33;;
22080;SDS011;11207;59.512;18.050;2022-10-23T12:25:27;3.40;;;3.10;;
22080;SDS011;11207;59.512;18.050;2022-10-23T12:34:07;3.93;;;3.57;;
22080;SDS011;11207;59.512;18.050;2022-10-23T12:39:31;4.03;;;3.00;;
22080;SDS011;11207;59.512;18.050;2022-10-23T12:42:01;3.40;;;3.10;;
22080;SDS011;11207;59.512;18.050;2022-10-23T12:44:28;3.40;;;3.10;;
22080;SDS011;11207;59.512;18.050;2022-10-23T12:47:01;3.33;;;3.03;;
22080;SDS011;11207;59.512;18.050;2022-10-23T12:49:28;3.70;;;2.73;;
22080;SDS011;11207;59.512;18.050;2022-10-23T12:52:02;3.50;;;2.57;;
22080;SDS011;11207;59.512;18.050;2022-10-23T12:54:39;3.57;;;2.60;;
22080;SDS011;11207;59.512;18.050;2022-10-23T12:59:54;2.70;;;2.50;;
22080;SDS011;11207;59.512;18.050;2022-10-23T13:02:34;2.70;;;2.40;;
22080;SDS011;11207;59.512;18.050;2022-10-23T13:05:01;3.63;;;2.77;;
22080;SDS011;11207;59.512;18.050;2022-10-23T13:07:34;2.80;;;2.60;;
22080;SDS011;11207;59.512;18.050;2022-10-23T13:10:04;3.43;;;2.90;;
22080;SDS011;11207;59.512;18.050;2022-10-23T13:12:34;3.17;;;2.87;;
22080;SDS011;11207;59.512;18.050;2022-10-23T13:18:04;3.00;;;2.70;;
22080;SDS011;11207;59.512;18.050;2022-10-23T13:20:28;3.53;;;3.07;;
22080;SDS011;11207;59.512;18.050;2022-10-23T13:23:10;4.03;;;3.10;;
22080;SDS011;11207;59.512;18.050;2022-10-23T13:26:01;3.37;;;2.43;;
22080;SDS011;11207;59.512;18.050;2022-10-23T13:28:32;3.40;;;2.83;;
22080;SDS011;11207;59.512;18.050;2022-10-23T13:33:44;2.90;;;2.60;;
22080;SDS011;11207;59.512;18.050;2022-10-23T13:41:11;2.90;;;2.70;;
22080;SDS011;11207;59.512;18.050;2022-10-23T13:43:43;5.47;;;2.73;;
22080;SDS011;11207;59.512;18.050;2022-10-23T13:46:16;2.90;;;2.67;;
22080;SDS011;11207;59.512;18.050;2022-10-23T13:48:43;3.50;;;3.17;;
22080;SDS011;11207;59.512;18.050;2022-10-23T13:51:13;2.93;;;2.73;;
22080;SDS011;11207;59.512;18.050;2022-10-23T13:53:43;3.03;;;2.73;;
22080;SDS011;11207;59.512;18.050;2022-10-23T13:56:10;3.40;;;3.10;;
22080;SDS011;11207;59.512;18.050;2022-10-23T13:58:36;2.80;;;2.50;;
22080;SDS011;11207;59.512;18.050;2022-10-23T14:01:02;3.13;;;2.80;;
22080;SDS011;11207;59.512;18.050;2022-10-23T14:03:28;3.47;;;2.87;;
22080;SDS011;11207;59.512;18.050;2022-10-23T14:05:54;4.03;;;2.97;;
22080;SDS011;11207;59.512;18.050;2022-10-23T14:08:20;3.13;;;2.83;;
22080;SDS011;11207;59.512;18.050;2022-10-23T14:10:46;3.20;;;2.90;;
22080;SDS011;11207;59.512;18.050;2022-10-23T14:13:12;2.53;;;2.33;;
22080;SDS011;11207;59.512;18.050;2022-10-23T14:15:37;2.57;;;2.40;;
22080;SDS011;11207;59.512;18.050;2022-10-23T14:18:03;2.50;;;2.30;;
22080;SDS011;11207;59.512;18.050;2022-10-23T14:20:29;3.03;;;2.83;;
22080;SDS011;11207;59.512;18.050;2022-10-23T14:22:54;3.03;;;2.70;;
22080;SDS011;11207;59.512;18.050;2022-10-23T14:25:20;3.00;;;2.80;;
22080;SDS011;11207;59.512;18.050;2022-10-23T14:27:47;3.20;;;2.90;;
22080;SDS011;11207;59.512;18.050;2022-10-23T14:30:13;2.90;;;2.60;;
22080;SDS011;11207;59.512;18.050;2022-10-23T14:32:40;3.13;;;2.93;;
22080;SDS011;11207;59.512;18.050;2022-10-23T14:35:06;4.17;;;2.90;;
22080;SDS011;11207;59.512;18.050;2022-10-23T14:37:32;3.93;;;3.40;;
22080;SDS011;11207;59.512;18.050;2022-10-23T14:39:58;3.50;;;3.20;;
22080;SDS011;11207;59.512;18.050;2022-10-23T14:42:25;3.63;;;3.27;;
22080;SDS011;11207;59.512;18.050;2022-10-23T14:44:51;3.67;;;2.90;;
22080;SDS011;11207;59.512;18.050;2022-10-23T14:47:17;3.20;;;2.90;;
22080;SDS011;11207;59.512;18.050;2022-10-23T14:49:44;3.07;;;2.77;;
22080;SDS011;11207;59.512;18.050;2022-10-23T14:52:14;3.57;;;3.27;;
22080;SDS011;11207;59.512;18.050;2022-10-23T14:54:40;3.40;;;3.10;;
22080;SDS011;11207;59.512;18.050;2022-10-23T14:57:05;5.47;;;3.40;;
22080;SDS011;11207;59.512;18.050;2022-10-23T14:59:31;4.30;;;3.00;;
22080;SDS011;11207;59.512;18.050;2022-10-23T15:01:57;3.47;;;3.17;;
22080;SDS011;11207;59.512;18.050;2022-10-23T15:04:23;4.40;;;3.97;;
22080;SDS011;11207;59.512;18.050;2022-10-23T15:06:49;3.43;;;3.10;;
22080;SDS011;11207;59.512;18.050;2022-10-23T15:09:15;3.80;;;3.43;;
22080;SDS011;11207;59.512;18.050;2022-10-23T15:11:43;4.80;;;3.53;;
22080;SDS011;11207;59.512;18.050;2022-10-23T15:14:09;4.00;;;3.60;;
22080;SDS011;11207;59.512;18.050;2022-10-23T15:16:35;5.07;;;3.00;;
22080;SDS011;11207;59.512;18.050;2022-10-23T15:19:05;4.17;;;3.43;;
22080;SDS011;11207;59.512;18.050;2022-10-23T15:21:32;4.07;;;3.50;;
22080;SDS011;11207;59.512;18.050;2022-10-23T15:23:59;3.90;;;3.50;;
22080;SDS011;11207;59.512;18.050;2022-10-23T15:26:25;12.27;;;3.53;;
22080;SDS011;11207;59.512;18.050;2022-10-23T15:28:55;3.90;;;3.50;;
22080;SDS011;11207;59.512;18.050;2022-10-23T15:31:45;7.63;;;3.60;;
22080;SDS011;11207;59.512;18.050;2022-10-23T15:34:11;6.37;;;3.80;;
22080;SDS011;11207;59.512;18.050;2022-10-23T15:36:46;5.87;;;3.93;;
22080;SDS011;11207;59.512;18.050;2022-10-23T15:39:14;6.27;;;4.10;;
22080;SDS011;11207;59.512;18.050;2022-10-23T15:41:42;4.07;;;3.67;;
22080;SDS011;11207;59.512;18.050;2022-10-23T15:44:09;5.20;;;4.17;;
22080;SDS011;11207;59.512;18.050;2022-10-23T15:46:37;6.10;;;4.40;;
22080;SDS011;11207;59.512;18.050;2022-10-23T15:49:03;10.23;;;6.27;;
22080;SDS011;11207;59.512;18.050;2022-10-23T15:51:29;9.73;;;5.83;;
22080;SDS011;11207;59.512;18.050;2022-10-23T15:53:54;10.43;;;6.13;;
22080;SDS011;11207;59.512;18.050;2022-10-23T15:56:21;9.10;;;6.80;;
22080;SDS011;11207;59.512;18.050;2022-10-23T15:58:47;11.37;;;7.43;;
22080;SDS011;11207;59.512;18.050;2022-10-23T16:01:13;16.00;;;9.10;;
22080;SDS011;11207;59.512;18.050;2022-10-23T16:03:39;17.17;;;10.83;;
22080;SDS011;11207;59.512;18.050;2022-10-23T16:06:06;19.10;;;11.40;;
22080;SDS011;11207;59.512;18.050;2022-10-23T16:08:33;18.10;;;10.93;;
22080;SDS011;11207;59.512;18.050;2022-10-23T16:11:00;17.33;;;10.67;;
22080;SDS011;11207;59.512;18.050;2022-10-23T16:13:25;14.30;;;9.53;;
22080;SDS011;11207;59.512;18.050;2022-10-23T16:15:51;12.70;;;8.80;;
22080;SDS011;11207;59.512;18.050;2022-10-23T16:18:20;11.87;;;8.63;;
22080;SDS011;11207;59.512;18.050;2022-10-23T16:20:47;14.00;;;9.63;;
22080;SDS011;11207;59.512;18.050;2022-10-23T16:23:15;13.93;;;10.33;;
22080;SDS011;11207;59.512;18.050;2022-10-23T16:25:40;18.83;;;10.23;;
22080;SDS011;11207;59.512;18.050;2022-10-23T16:28:06;11.70;;;9.20;;
22080;SDS011;11207;59.512;18.050;2022-10-23T16:30:32;13.00;;;9.33;;
22080;SDS011;11207;59.512;18.050;2022-10-23T16:32:57;11.63;;;8.50;;
22080;SDS011;11207;59.512;18.050;2022-10-23T16:35:23;13.40;;;8.53;;
22080;SDS011;11207;59.512;18.050;2022-10-23T16:37:49;11.67;;;7.93;;
22080;SDS011;11207;59.512;18.050;2022-10-23T16:40:14;9.13;;;7.40;;
22080;SDS011;11207;59.512;18.050;2022-10-23T16:42:40;7.57;;;6.67;;
22080;SDS011;11207;59.512;18.050;2022-10-23T16:45:06;9.03;;;6.40;;
22080;SDS011;11207;59.512;18.050;2022-10-23T16:47:33;8.00;;;6.27;;
22080;SDS011;11207;59.512;18.050;2022-10-23T16:49:58;13.07;;;6.03;;
22080;SDS011;11207;59.512;18.050;2022-10-23T16:52:24;9.80;;;6.73;;
22080;SDS011;11207;59.512;18.050;2022-10-23T16:54:51;8.00;;;6.50;;
22080;SDS011;11207;59.512;18.050;2022-10-23T16:57:16;10.27;;;6.50;;